»·PEaware :: PSV800 MWCR-KFLL

PSV800 :: MWCR-KFLL

FLIGHT INFORMATION

Flight Status: Arrived
Operator:
Power Set Virtual (website)
More flights by this operator :: More flights under this callsign
Pilot: Scott L. (17677)
Aircraft: CESSNA 510 CITATION MUSTANG
(C510)
More flights by this aircraft type
Origin: MWCR Roberts Intl
Cayman Islands
Destination: KFLL Ft Lauderdale-Hollywood Intl
United States
More flights between these airports :: More routes between these airports
Route: XOPLI UG448 IKBIX Y183 PEAKY DVALL CURSO5
File this flight plan on PilotEdge
Remarks:
Altitude:
(Current/Filed)
35,000ft
Speed:
(Current/Filed)
400kts
Departed: 24-Mar-20 07:16 AM
Arrived: 24-Mar-20 08:49 AM
Distance/Time
Traveled:
413nm/1:33
Distance/Time
To Go:
Arrived

Flight Plot

Page will automatically refresh every two minutes.


Map Options




Map Legend


Flown Route
Filed Route
Departure Airport
Arrival Airport
Navaid (VOR, NDB)
Fix

Horizontal Profiles

Position Reports

Time Latitude Longitude Heading Altitude Ground
Speed
24-Mar-20 07:14 19.465961 -81.283917 24 5256ft 312kts
24-Mar-20 07:15 19.546959 -81.247359 24 7146ft 320kts
24-Mar-20 07:16 19.619164 -81.214902 24 11467ft 259kts
24-Mar-20 07:17 19.691076 -81.182555 24 13324ft 296kts
24-Mar-20 07:18 19.768894 -81.147712 24 15148ft 309kts
24-Mar-20 07:20 19.848612 -81.112054 24 16958ft 311kts
24-Mar-20 07:21 19.928554 -81.076315 24 18759ft 310kts
24-Mar-20 07:22 20.009133 -81.045870 359 20521ft 315kts
24-Mar-20 07:23 20.095529 -81.057514 357 22322ft 312kts
24-Mar-20 07:24 20.181224 -81.068722 357 24142ft 307kts
24-Mar-20 07:25 20.264448 -81.079730 357 25938ft 302kts
24-Mar-20 07:26 20.346997 -81.090695 358 27750ft 296kts
24-Mar-20 07:27 20.427782 -81.101444 358 29559ft 289kts
24-Mar-20 07:28 20.506037 -81.111868 358 31350ft 281kts
24-Mar-20 07:29 20.582454 -81.122055 358 33145ft 271kts
24-Mar-20 07:30 20.656067 -81.131896 358 34923ft 261kts
24-Mar-20 07:31 20.732791 -81.142018 357 35162ft 299kts
24-Mar-20 07:32 20.820274 -81.153734 357 35156ft 327kts
24-Mar-20 07:33 20.913027 -81.166238 357 35153ft 343kts
24-Mar-20 07:34 21.009817 -81.179158 356 35150ft 352kts
24-Mar-20 07:35 21.106862 -81.192029 355 35153ft 355kts
24-Mar-20 07:36 21.205700 -81.205540 355 35160ft 358kts
24-Mar-20 07:37 21.304858 -81.219051 355 35159ft 359kts
24-Mar-20 07:38 21.404797 -81.232589 355 35157ft 360kts
24-Mar-20 07:39 21.504218 -81.246053 355 35156ft 360kts
24-Mar-20 07:40 21.603593 -81.259518 355 35154ft 359kts
24-Mar-20 07:40 21.686038 -81.270703 355 35153ft 359kts
24-Mar-20 07:42 21.801731 -81.286420 355 35151ft 359kts
24-Mar-20 07:42 21.884639 -81.297699 355 35150ft 359kts
24-Mar-20 07:43 21.983627 -81.311183 355 35149ft 358kts
24-Mar-20 07:44 22.082764 -81.324707 355 35147ft 358kts
24-Mar-20 07:45 22.182083 -81.338270 355 35162ft 359kts
24-Mar-20 07:46 22.281238 -81.351833 355 35165ft 360kts
24-Mar-20 07:47 22.380422 -81.365421 355 35179ft 360kts
24-Mar-20 07:48 22.479573 -81.379024 355 35183ft 360kts
24-Mar-20 07:49 22.578894 -81.392670 355 35182ft 360kts
24-Mar-20 07:50 22.676220 -81.398213 7 35186ft 340kts
24-Mar-20 07:51 22.768387 -81.387132 6 35177ft 329kts
24-Mar-20 07:52 22.858430 -81.376138 7 35177ft 324kts
24-Mar-20 07:53 22.947469 -81.364857 6 35175ft 320kts
24-Mar-20 07:54 23.036689 -81.353549 4 35173ft 319kts
24-Mar-20 07:55 23.125278 -81.342808 4 35188ft 318kts
24-Mar-20 07:56 23.213676 -81.331949 4 35186ft 319kts
24-Mar-20 07:57 23.302135 -81.320950 4 35184ft 320kts
24-Mar-20 07:58 23.390802 -81.309875 4 35183ft 320kts
24-Mar-20 07:59 23.479154 -81.298822 4 35182ft 320kts
24-Mar-20 08:00 23.567674 -81.287726 4 35180ft 320kts
24-Mar-20 08:01 23.656161 -81.276624 4 35179ft 319kts
24-Mar-20 08:02 23.744323 -81.265547 4 35181ft 319kts
24-Mar-20 08:03 23.832408 -81.254464 4 35186ft 319kts
24-Mar-20 08:04 23.920476 -81.243367 4 35189ft 318kts
24-Mar-20 08:05 24.008446 -81.232079 5 35192ft 318kts
24-Mar-20 08:06 24.095948 -81.219533 5 35191ft 318kts
24-Mar-20 08:07 24.183057 -81.207030 5 35206ft 319kts
24-Mar-20 08:08 24.271343 -81.194228 4 35204ft 320kts
24-Mar-20 08:09 24.359751 -81.181524 4 35202ft 320kts
24-Mar-20 08:10 24.448317 -81.168776 4 35201ft 320kts
24-Mar-20 08:11 24.536174 -81.156075 4 35200ft 320kts
24-Mar-20 08:12 24.615978 -81.144076 5 35199ft 320kts
24-Mar-20 08:13 24.678277 -81.134090 5 35198ft 320kts
24-Mar-20 08:14 24.795901 -81.115249 5 35196ft 319kts
24-Mar-20 08:15 24.883983 -81.101079 5 35195ft 319kts
24-Mar-20 08:16 24.971783 -81.086940 5 35193ft 319kts
24-Mar-20 08:17 25.060048 -81.072299 4 35192ft 319kts
24-Mar-20 08:18 25.128902 -81.061069 2 35206ft 321kts
24-Mar-20 08:19 25.223030 -81.046216 2 35205ft 324kts
24-Mar-20 08:20 25.312385 -81.031836 3 35204ft 326kts
24-Mar-20 08:21 25.402410 -81.017252 3 35208ft 327kts
24-Mar-20 08:22 25.492704 -81.002403 7 35207ft 330kts
24-Mar-20 08:23 25.550355 -80.917150 55 35217ft 370kts
24-Mar-20 08:24 25.600934 -80.821727 21 35215ft 340kts
24-Mar-20 08:25 25.691242 -80.803478 3 35218ft 330kts
24-Mar-20 08:26 25.782424 -80.791663 2 35217ft 330kts
24-Mar-20 08:27 25.873350 -80.780497 2 35216ft 330kts
24-Mar-20 08:28 25.962062 -80.769666 2 35214ft 329kts
24-Mar-20 08:29 26.055652 -80.756785 14 35194ft 336kts
24-Mar-20 08:30 26.085321 -80.657789 88 35222ft 394kts
24-Mar-20 08:31 26.079206 -80.536356 85 35218ft 393kts
24-Mar-20 08:32 26.085664 -80.416415 77 35223ft 387kts
24-Mar-20 08:33 26.094306 -80.298531 77 35154ft 348kts
24-Mar-20 08:34 26.141840 -80.229327 351 30263ft 297kts
24-Mar-20 08:35 26.166482 -80.303260 239 25293ft 338kts
24-Mar-20 08:36 26.084694 -80.305071 126 20272ft 313kts
24-Mar-20 08:37 26.096253 -80.247823 354 15285ft 222kts
24-Mar-20 08:38 26.098162 -80.294729 190 10359ft 222kts
24-Mar-20 08:39 26.046540 -80.291063 239 5417ft 215kts
24-Mar-20 08:40 26.051413 -80.357442 278 3021ft 236kts
24-Mar-20 08:41 26.071245 -80.424687 339 2992ft 206kts
24-Mar-20 08:42 26.087250 -80.392200 120 3017ft 155kts
24-Mar-20 08:43 26.077416 -80.340181 89 2044ft 200kts
24-Mar-20 08:44 26.077649 -80.283886 92 1789ft 152kts
24-Mar-20 08:45 26.077360 -80.235747 92 1303ft 169kts
24-Mar-20 08:46 26.077202 -80.194699 94 555ft 101kts
24-Mar-20 08:47 26.077007 -80.163425 94 53ft 97kts
24-Mar-20 08:48 26.078256 -80.150654 27 8ft 7kts
24-Mar-20 08:49 26.079124 -80.151211 277 8ft 0kts
24-Mar-20 08:50 26.079124 -80.151211 277 8ft 0kts
24-Mar-20 08:51 26.079124 -80.151211 277 8ft 0kts
24-Mar-20 08:52 26.079124 -80.151211 277 8ft 0kts
24-Mar-20 08:53 26.079124 -80.151211 277 8ft 0kts
24-Mar-20 08:54 26.079124 -80.151211 277 8ft 0kts
24-Mar-20 08:55 26.079124 -80.151211 277 8ft 0kts
24-Mar-20 08:56 26.079124 -80.151211 277 8ft 0kts
24-Mar-20 08:57 26.079124 -80.151211 277 8ft 0kts
24-Mar-20 08:58 26.079124 -80.151211 277 8ft 0kts
24-Mar-20 08:59 26.079124 -80.151211 277 8ft 0kts
24-Mar-20 09:00 26.079124 -80.151211 277 8ft 0kts
24-Mar-20 09:01 26.079124 -80.151211 277 8ft 0kts
24-Mar-20 09:02 26.079124 -80.151211 277 8ft 0kts

Navigation Log

Ident Type
Flight plan parsing failed, navigation log unavailable